Time;durP1;ratioP1;P1;durP2;ratioP2;P2;SDS_P1;SDS_P2;PMS_P1;PMS_P2;Temp;Humidity;BMP_temperature;BMP_pressure;BME280_temperature;BME280_humidity;BME280_pressure;Samples;Min_cycle;Max_cycle;Signal;HPM_P1;HPM_P2
2023/07/09 00:00:48;;;;;;;9.53;7.33;;;28.10;72.70;;;;;;5018818;28;20498;-68
2023/07/09 00:03:15;;;;;;;7.80;7.00;;;28.00;72.70;;;;;;5014809;28;20996;-68
2023/07/09 00:05:41;;;;;;;15.97;8.37;;;28.00;72.50;;;;;;5015111;28;20447;-68
2023/07/09 00:08:26;;;;;;;9.23;7.30;;;28.00;72.60;;;;;;5008456;28;20534;-67
2023/07/09 00:10:53;;;;;;;10.80;7.80;;;28.00;73.00;;;;;;5013018;28;20435;-67
2023/07/09 00:13:20;;;;;;;12.10;7.30;;;28.00;73.30;;;;;;5012857;28;20445;-67
2023/07/09 00:15:46;;;;;;;10.90;7.50;;;28.00;73.20;;;;;;5013964;28;20454;-67
2023/07/09 00:18:11;;;;;;;8.10;7.07;;;28.00;73.20;;;;;;5015650;28;20463;-67
2023/07/09 00:20:37;;;;;;;7.23;6.03;;;28.00;73.40;;;;;;5018865;28;20609;-67
2023/07/09 00:23:04;;;;;;;7.27;6.10;;;27.90;73.40;;;;;;5018538;28;20220;-68
2023/07/09 00:25:30;;;;;;;10.33;6.20;;;27.90;71.80;;;;;;5021061;28;20283;-68
2023/07/09 00:27:56;;;;;;;14.13;6.80;;;27.80;72.10;;;;;;5016729;28;20474;-68
2023/07/09 00:30:23;;;;;;;9.53;6.90;;;27.80;72.90;;;;;;5017661;28;20427;-68
2023/07/09 00:32:52;;;;;;;11.17;6.23;;;27.70;73.40;;;;;;5021600;28;20423;-67
2023/07/09 00:35:18;;;;;;;9.97;6.97;;;27.70;72.20;;;;;;5016132;28;21439;-67
2023/07/09 00:37:45;;;;;;;9.30;7.00;;;27.70;72.30;;;;;;5016562;28;20823;-67
2023/07/09 00:40:18;;;;;;;6.93;6.20;;;27.70;72.10;;;;;;5022146;28;20431;-68
2023/07/09 00:42:46;;;;;;;9.87;6.00;;;27.60;72.10;;;;;;5017588;28;20449;-67
2023/07/09 00:45:24;;;;;;;8.47;6.23;;;27.60;72.20;;;;;;5019283;28;20447;-67
2023/07/09 00:47:56;;;;;;;14.83;6.93;;;27.60;72.40;;;;;;5017024;28;20463;-67
2023/07/09 00:50:47;;;;;;;9.03;6.47;;;27.60;72.90;;;;;;5020609;28;20418;-67
2023/07/09 00:53:18;;;;;;;7.37;6.63;;;27.60;73.30;;;;;;5011712;28;20437;-67
2023/07/09 00:55:56;;;;;;;10.40;7.20;;;27.60;73.30;;;;;;5018853;28;20435;-67
2023/07/09 00:58:26;;;;;;;7.90;6.47;;;27.60;73.60;;;;;;5019036;28;20466;-68
2023/07/09 01:00:56;;;;;;;9.17;6.50;;;27.50;73.70;;;;;;5025398;28;20542;-67
2023/07/09 01:03:21;;;;;;;8.07;6.40;;;27.50;74.20;;;;;;5021800;28;21136;-68
2023/07/09 01:05:51;;;;;;;8.90;6.40;;;27.50;74.40;;;;;;5025207;28;20529;-67
2023/07/09 01:08:19;;;;;;;7.83;7.03;;;27.40;74.70;;;;;;5021225;28;20760;-67
2023/07/09 01:10:45;;;;;;;11.30;7.70;;;27.40;75.00;;;;;;5023511;28;20426;-67
2023/07/09 01:13:10;;;;;;;11.97;7.17;;;27.40;75.40;;;;;;5021785;28;21195;-67
2023/07/09 01:15:37;;;;;;;7.73;6.93;;;27.30;76.30;;;;;;5018411;28;20679;-67
2023/07/09 01:18:04;;;;;;;16.40;7.40;;;27.30;76.60;;;;;;5025744;28;20207;-65
2023/07/09 01:20:30;;;;;;;7.30;6.57;;;27.30;76.80;;;;;;5020714;28;20438;-65
2023/07/09 01:22:56;;;;;;;7.63;6.87;;;27.30;77.00;;;;;;5022904;28;20442;-65
2023/07/09 01:25:24;;;;;;;7.63;6.93;;;27.30;77.50;;;;;;5023916;28;20445;-65
2023/07/09 01:27:50;;;;;;;9.87;6.60;;;27.30;77.60;;;;;;5019997;28;20486;-65
2023/07/09 01:30:28;;;;;;;7.30;6.30;;;27.20;77.60;;;;;;5019733;28;20506;-65
2023/07/09 01:32:57;;;;;;;6.90;6.20;;;27.20;77.70;;;;;;5016651;28;20510;-65
2023/07/09 01:35:24;;;;;;;9.20;7.00;;;27.20;77.80;;;;;;5014625;28;20435;-67
2023/07/09 01:37:50;;;;;;;6.13;5.50;;;27.20;77.70;;;;;;5019133;28;20440;-67
2023/07/09 01:40:19;;;;;;;8.40;6.70;;;27.20;77.50;;;;;;5018180;28;20578;-68
2023/07/09 01:42:44;;;;;;;10.43;5.33;;;27.10;77.20;;;;;;5019286;28;20537;-67
2023/07/09 01:45:11;;;;;;;8.07;6.83;;;27.10;77.20;;;;;;5018540;28;20941;-67
2023/07/09 01:47:38;;;;;;;7.43;6.70;;;27.10;77.20;;;;;;5019093;28;20629;-67
2023/07/09 01:50:05;;;;;;;9.07;6.73;;;27.00;77.20;;;;;;5020248;28;20558;-67
2023/07/09 01:52:33;;;;;;;12.20;6.17;;;27.00;77.40;;;;;;5020835;28;20427;-67
2023/07/09 01:54:58;;;;;;;9.63;6.43;;;27.00;77.80;;;;;;5020011;28;20434;-67
2023/07/09 01:57:32;;;;;;;8.60;7.00;;;27.00;78.00;;;;;;5017397;28;20431;-67
2023/07/09 01:59:59;;;;;;;8.57;6.70;;;26.90;78.10;;;;;;5021015;28;20215;-67
2023/07/09 02:02:25;;;;;;;12.63;6.30;;;26.90;78.40;;;;;;5020139;28;20434;-67
2023/07/09 02:04:53;;;;;;;8.63;6.77;;;26.80;78.30;;;;;;5021343;28;20422;-67
2023/07/09 02:07:20;;;;;;;6.90;6.03;;;26.80;78.50;;;;;;5018529;28;20720;-68
2023/07/09 02:09:46;;;;;;;11.10;6.07;;;26.80;78.50;;;;;;5018741;28;20478;-67
2023/07/09 02:12:13;;;;;;;8.43;6.40;;;26.70;78.60;;;;;;5020549;28;20517;-67
2023/07/09 02:14:41;;;;;;;9.47;6.13;;;26.70;78.50;;;;;;5016569;28;20174;-67
2023/07/09 02:17:07;;;;;;;8.23;6.90;;;26.70;78.60;;;;;;5017535;28;20431;-67
2023/07/09 02:19:33;;;;;;;6.83;6.13;;;26.70;78.50;;;;;;5020355;28;20458;-67
2023/07/09 02:21:58;;;;;;;7.40;6.10;;;26.60;78.60;;;;;;5020664;28;20427;-67
2023/07/09 02:24:25;;;;;;;7.03;5.10;;;26.60;78.70;;;;;;5019440;28;20189;-67
2023/07/09 02:26:54;;;;;;;12.80;6.03;;;26.60;79.00;;;;;;5020597;28;20187;-67
2023/07/09 02:29:20;;;;;;;8.90;6.40;;;26.60;79.10;;;;;;5018786;28;20592;-67
2023/07/09 02:31:48;;;;;;;7.50;6.50;;;26.60;79.40;;;;;;5020093;28;21281;-67
2023/07/09 02:34:13;;;;;;;7.93;7.13;;;26.60;79.40;;;;;;5017068;28;20562;-67
2023/07/09 02:36:42;;;;;;;7.60;6.80;;;26.60;79.80;;;;;;5017147;28;20684;-67
2023/07/09 02:39:12;;;;;;;7.80;6.60;;;26.60;80.20;;;;;;5021396;28;20208;-67
2023/07/09 02:41:40;;;;;;;9.53;7.10;;;26.50;80.30;;;;;;5016192;28;20889;-67
2023/07/09 02:44:07;;;;;;;8.57;7.10;;;26.50;80.80;;;;;;5019729;28;20462;-67
2023/07/09 02:46:32;;;;;;;7.30;6.60;;;26.50;81.20;;;;;;5018633;28;20811;-68
2023/07/09 02:48:58;;;;;;;10.00;7.27;;;26.50;81.70;;;;;;5018194;28;20554;-67
2023/07/09 02:51:26;;;;;;;10.83;6.20;;;26.50;82.20;;;;;;5015511;28;20887;-67
2023/07/09 02:53:56;;;;;;;10.83;7.33;;;26.40;82.80;;;;;;5019967;28;20205;-67
2023/07/09 02:56:22;;;;;;;10.70;7.97;;;26.40;82.60;;;;;;5019443;28;20518;-67
2023/07/09 02:58:47;;;;;;;8.97;6.43;;;26.40;83.20;;;;;;5020774;28;20541;-67
2023/07/09 03:01:13;;;;;;;7.43;6.60;;;26.40;83.80;;;;;;5016259;28;20587;-67
2023/07/09 03:03:39;;;;;;;7.67;6.97;;;26.30;84.10;;;;;;5020914;28;20185;-67
2023/07/09 03:06:05;;;;;;;7.67;6.93;;;26.30;85.00;;;;;;5019176;28;20824;-67
2023/07/09 03:08:31;;;;;;;6.77;6.17;;;26.20;86.00;;;;;;5012270;28;20208;-67
2023/07/09 03:10:57;;;;;;;9.30;7.27;;;26.20;86.40;;;;;;5015239;28;20446;-67
2023/07/09 03:13:22;;;;;;;8.27;7.43;;;26.10;87.00;;;;;;5017801;28;20192;-67
2023/07/09 03:15:57;;;;;;;8.47;6.83;;;26.00;87.50;;;;;;5013923;28;20185;-67
2023/07/09 03:18:24;;;;;;;8.93;6.93;;;25.90;88.40;;;;;;5019322;28;20218;-67
2023/07/09 03:20:49;;;;;;;9.67;7.00;;;25.90;88.80;;;;;;5012481;28;20444;-67
2023/07/09 03:23:15;;;;;;;12.27;7.90;;;25.80;90.00;;;;;;5018965;28;20502;-67
2023/07/09 03:25:42;;;;;;;8.93;7.63;;;25.70;90.30;;;;;;5012131;28;20269;-68
2023/07/09 03:28:07;;;;;;;9.53;7.33;;;25.60;90.60;;;;;;5017797;28;20655;-68
2023/07/09 03:30:33;;;;;;;11.83;7.07;;;25.70;90.50;;;;;;5019554;28;20435;-68
2023/07/09 03:33:00;;;;;;;9.47;6.63;;;25.60;90.80;;;;;;5017030;28;20668;-67
2023/07/09 03:35:25;;;;;;;10.47;7.27;;;25.40;91.30;;;;;;5016983;28;20188;-67
2023/07/09 03:37:51;;;;;;;7.73;6.90;;;25.40;91.50;;;;;;4994662;28;20814;-67
2023/07/09 03:40:21;;;;;;;7.27;6.23;;;25.40;91.60;;;;;;5015549;28;20650;-67
2023/07/09 03:42:47;;;;;;;9.13;7.23;;;25.50;91.70;;;;;;5014641;28;20181;-67
2023/07/09 03:45:12;;;;;;;7.80;6.47;;;25.40;92.00;;;;;;5018602;28;20445;-67
2023/07/09 03:47:38;;;;;;;8.03;6.60;;;25.50;92.10;;;;;;5018135;28;20215;-67
2023/07/09 03:50:08;;;;;;;11.80;6.70;;;25.50;92.30;;;;;;5016808;28;20204;-67
2023/07/09 03:52:34;;;;;;;8.23;7.40;;;25.40;92.80;;;;;;5017840;28;20192;-67
2023/07/09 03:55:01;;;;;;;8.47;7.57;;;25.40;93.30;;;;;;5016348;28;20808;-67
2023/07/09 03:57:27;;;;;;;8.90;6.50;;;25.40;93.00;;;;;;5015511;28;20203;-67
2023/07/09 03:59:52;;;;;;;8.20;7.40;;;25.40;93.30;;;;;;5016873;28;20458;-67
2023/07/09 04:02:18;;;;;;;12.40;7.53;;;25.40;93.70;;;;;;5015213;28;20923;-67
2023/07/09 04:04:44;;;;;;;9.43;7.30;;;25.40;94.10;;;;;;5019183;28;20196;-67
2023/07/09 04:07:09;;;;;;;12.10;7.57;;;25.30;94.10;;;;;;5017919;28;20567;-67
2023/07/09 04:09:35;;;;;;;7.90;7.10;;;25.40;94.10;;;;;;5016047;28;20204;-67
2023/07/09 04:12:01;;;;;;;9.97;7.40;;;25.40;94.10;;;;;;5015313;28;20202;-67
2023/07/09 04:14:27;;;;;;;9.17;7.47;;;25.30;94.40;;;;;;5013957;28;20650;-67
2023/07/09 04:16:53;;;;;;;9.93;7.73;;;25.30;94.80;;;;;;5016420;28;20576;-67
2023/07/09 04:19:18;;;;;;;10.40;7.10;;;25.20;95.40;;;;;;5016839;28;21167;-67
2023/07/09 04:21:44;;;;;;;8.70;6.90;;;25.10;96.10;;;;;;5010784;28;20185;-67
2023/07/09 04:24:09;;;;;;;9.27;7.63;;;25.20;96.10;;;;;;5015395;28;20184;-67
2023/07/09 04:26:35;;;;;;;9.30;7.20;;;25.20;96.20;;;;;;5017895;28;20188;-67
2023/07/09 04:29:01;;;;;;;9.03;7.97;;;25.30;96.30;;;;;;5014053;28;20210;-67
2023/07/09 04:31:26;;;;;;;12.77;7.80;;;25.20;96.70;;;;;;5014237;28;20185;-67
2023/07/09 04:33:55;;;;;;;8.77;6.60;;;25.20;97.00;;;;;;5017928;28;20204;-67
2023/07/09 04:36:21;;;;;;;13.23;7.87;;;25.20;97.40;;;;;;5014801;28;20185;-65
2023/07/09 04:38:46;;;;;;;8.90;7.70;;;25.20;97.90;;;;;;5017261;28;20509;-65
2023/07/09 04:41:12;;;;;;;8.03;7.23;;;25.10;98.60;;;;;;5016882;28;20263;-67
2023/07/09 04:43:37;;;;;;;11.70;8.10;;;25.00;99.60;;;;;;5018756;28;20207;-67
2023/07/09 04:46:03;;;;;;;11.13;7.93;;;24.90;99.90;;;;;;5016900;28;20188;-67
2023/07/09 04:48:28;;;;;;;11.20;8.90;;;24.90;99.90;;;;;;5018601;28;20291;-68
2023/07/09 04:50:54;;;;;;;8.30;7.23;;;24.90;99.90;;;;;;5017818;28;20195;-67
2023/07/09 04:53:20;;;;;;;7.90;7.10;;;24.80;99.90;;;;;;5018814;28;20188;-67
2023/07/09 04:55:45;;;;;;;6.53;5.93;;;24.70;99.90;;;;;;5016402;28;21015;-67
2023/07/09 04:58:11;;;;;;;9.90;5.73;;;24.70;99.90;;;;;;5017264;28;20216;-66
2023/07/09 05:00:37;;;;;;;12.33;6.67;;;24.60;99.10;;;;;;5018468;28;20278;-67
2023/07/09 05:03:02;;;;;;;10.57;7.17;;;24.70;99.20;;;;;;5018742;28;20220;-67
2023/07/09 05:05:28;;;;;;;8.83;6.53;;;24.80;99.20;;;;;;5019451;28;20192;-67
2023/07/09 05:07:53;;;;;;;10.53;7.07;;;24.90;99.10;;;;;;5019277;28;20231;-67
2023/07/09 05:10:19;;;;;;;13.77;7.90;;;24.90;99.10;;;;;;5030757;28;20181;-67
2023/07/09 05:12:53;;;;;;;10.20;6.90;;;24.90;99.00;;;;;;5021666;28;20193;-67
2023/07/09 05:15:20;;;;;;;7.53;6.30;;;24.90;98.70;;;;;;5023027;28;20195;-67
2023/07/09 05:17:46;;;;;;;8.50;6.50;;;24.90;98.50;;;;;;5021702;28;20434;-67
2023/07/09 05:20:13;;;;;;;7.20;6.50;;;24.90;98.60;;;;;;5021570;28;20500;-67
2023/07/09 05:22:39;;;;;;;7.20;6.50;;;24.90;98.80;;;;;;5021622;28;20484;-67
2023/07/09 05:25:05;;;;;;;9.23;6.90;;;24.90;98.90;;;;;;5024851;28;21118;-67
2023/07/09 05:27:30;;;;;;;6.60;5.73;;;24.90;99.00;;;;;;5021988;28;20226;-67
2023/07/09 05:29:56;;;;;;;10.07;6.07;;;24.90;98.70;;;;;;5019972;28;21382;-67
2023/07/09 05:32:21;;;;;;;6.80;6.10;;;24.90;98.90;;;;;;5018528;28;20299;-67
2023/07/09 05:34:47;;;;;;;7.87;6.03;;;24.90;98.60;;;;;;5018530;28;20230;-67
2023/07/09 05:37:12;;;;;;;6.13;5.50;;;25.00;98.30;;;;;;5022324;28;20177;-67
2023/07/09 05:39:38;;;;;;;7.93;6.13;;;25.00;98.10;;;;;;5016349;28;20285;-67
2023/07/09 05:42:04;;;;;;;6.90;6.13;;;25.00;97.90;;;;;;5018424;28;20594;-67
2023/07/09 05:44:29;;;;;;;6.73;6.03;;;25.00;98.00;;;;;;5020008;28;20191;-67
2023/07/09 05:46:55;;;;;;;7.77;6.20;;;25.00;98.20;;;;;;5018240;28;20230;-67
2023/07/09 05:49:20;;;;;;;8.60;6.23;;;25.10;98.10;;;;;;5022257;28;20212;-67
2023/07/09 05:51:46;;;;;;;7.90;6.30;;;25.20;97.70;;;;;;5016152;28;20260;-67
2023/07/09 05:54:12;;;;;;;7.77;5.57;;;25.20;97.50;;;;;;5019693;28;20307;-67
2023/07/09 05:56:37;;;;;;;7.93;6.87;;;25.30;97.50;;;;;;5019349;28;20853;-67
2023/07/09 05:59:04;;;;;;;10.33;6.57;;;25.30;97.30;;;;;;5018844;28;20262;-67
2023/07/09 06:01:29;;;;;;;8.70;6.00;;;25.40;97.20;;;;;;5020509;28;20261;-67
2023/07/09 06:03:56;;;;;;;8.30;6.90;;;25.40;96.80;;;;;;5022036;28;20534;-67
2023/07/09 06:06:22;;;;;;;8.13;6.67;;;25.50;96.70;;;;;;5018775;28;20312;-67
2023/07/09 06:08:47;;;;;;;6.60;5.90;;;25.60;96.50;;;;;;5019820;28;21162;-65
2023/07/09 06:11:13;;;;;;;9.20;6.70;;;25.70;96.30;;;;;;5019901;28;20188;-67
2023/07/09 06:13:39;;;;;;;7.93;6.00;;;25.70;96.30;;;;;;5015004;28;20291;-67
2023/07/09 06:16:05;;;;;;;9.53;5.90;;;25.80;96.40;;;;;;5014883;28;20955;-67
2023/07/09 06:18:31;;;;;;;9.93;6.03;;;25.80;96.10;;;;;;5021972;28;20196;-67
2023/07/09 06:20:59;;;;;;;9.97;6.37;;;25.90;95.90;;;;;;5018030;28;20750;-67
2023/07/09 06:23:25;;;;;;;6.40;5.80;;;26.00;95.70;;;;;;5022375;28;20192;-67
2023/07/09 06:25:52;;;;;;;10.63;6.80;;;26.00;95.60;;;;;;5018594;28;20439;-67
2023/07/09 06:28:21;;;;;;;7.80;5.90;;;26.10;95.50;;;;;;5017211;28;20262;-67
2023/07/09 06:30:47;;;;;;;6.80;6.20;;;26.10;95.50;;;;;;5018163;28;20480;-67
2023/07/09 06:33:14;;;;;;;7.77;6.73;;;26.20;95.20;;;;;;5018778;28;21125;-67
2023/07/09 06:35:47;;;;;;;14.00;11.23;;;26.30;95.00;;;;;;5021391;28;20906;-69
2023/07/09 06:38:13;;;;;;;9.63;6.97;;;26.40;95.00;;;;;;5020492;28;20981;-67
2023/07/09 06:40:39;;;;;;;8.07;6.53;;;26.40;94.90;;;;;;5015338;28;20439;-67
2023/07/09 06:43:04;;;;;;;7.00;6.30;;;26.40;94.70;;;;;;5013275;28;20192;-68
2023/07/09 06:45:31;;;;;;;7.90;6.13;;;26.50;94.50;;;;;;5015472;28;20266;-67
2023/07/09 06:47:57;;;;;;;8.23;7.13;;;26.60;94.40;;;;;;5017516;28;20216;-67
2023/07/09 06:50:22;;;;;;;8.33;6.97;;;26.60;94.30;;;;;;5018109;28;20849;-67
2023/07/09 06:52:48;;;;;;;9.97;7.53;;;26.70;94.30;;;;;;5020229;28;20224;-67
2023/07/09 06:55:14;;;;;;;8.60;7.50;;;26.80;94.20;;;;;;5019689;28;20185;-67
2023/07/09 06:57:39;;;;;;;7.10;6.40;;;26.80;94.00;;;;;;5016737;28;20276;-68
2023/07/09 07:00:06;;;;;;;10.00;7.40;;;26.80;93.90;;;;;;5015983;28;20240;-67
2023/07/09 07:02:32;;;;;;;12.63;9.70;;;26.90;93.70;;;;;;5016752;28;20181;-67
2023/07/09 07:04:57;;;;;;;8.57;6.77;;;27.00;93.60;;;;;;5014561;28;20439;-67
2023/07/09 07:07:23;;;;;;;8.10;6.63;;;27.00;93.40;;;;;;5018182;28;20234;-67
2023/07/09 07:09:49;;;;;;;8.63;5.97;;;27.10;93.30;;;;;;5017559;28;20228;-67
2023/07/09 07:12:25;;;;;;;8.70;6.30;;;27.20;93.20;;;;;;5017563;28;20600;-67
2023/07/09 07:14:51;;;;;;;9.50;6.37;;;27.20;93.00;;;;;;5015168;28;22810;-67
2023/07/09 07:17:17;;;;;;;6.87;5.93;;;27.30;92.90;;;;;;5018331;28;20515;-67
2023/07/09 07:19:43;;;;;;;7.33;6.27;;;27.30;92.60;;;;;;5015365;28;20243;-67
2023/07/09 07:22:09;;;;;;;7.53;6.73;;;27.40;92.40;;;;;;5015860;28;20455;-67
2023/07/09 07:24:34;;;;;;;9.87;7.10;;;27.50;92.40;;;;;;5017530;28;20972;-67
2023/07/09 07:27:00;;;;;;;8.80;6.37;;;27.50;92.30;;;;;;5012339;28;20188;-67
2023/07/09 07:29:25;;;;;;;9.20;6.67;;;27.60;92.30;;;;;;5018036;28;20220;-67
2023/07/09 07:31:51;;;;;;;10.70;6.10;;;27.70;92.20;;;;;;5014895;28;20177;-67
2023/07/09 07:34:17;;;;;;;10.80;6.30;;;27.70;92.00;;;;;;5019325;28;20191;-67
2023/07/09 07:36:42;;;;;;;8.73;7.00;;;27.80;91.70;;;;;;5014375;28;20486;-67
2023/07/09 07:39:08;;;;;;;7.87;6.30;;;27.90;91.60;;;;;;5017083;28;20211;-67
2023/07/09 07:41:34;;;;;;;7.40;6.70;;;27.90;91.30;;;;;;5020896;28;20177;-67
2023/07/09 07:43:59;;;;;;;7.73;6.90;;;28.00;91.10;;;;;;5016164;28;20493;-67
2023/07/09 07:46:25;;;;;;;9.80;8.40;;;28.00;91.10;;;;;;5020340;28;20689;-68
2023/07/09 07:48:50;;;;;;;8.90;6.63;;;28.10;90.70;;;;;;5018889;28;20237;-68
2023/07/09 07:51:16;;;;;;;8.63;7.10;;;28.10;90.60;;;;;;5020635;28;20173;-67
2023/07/09 07:53:42;;;;;;;6.83;6.13;;;28.20;90.50;;;;;;5019663;28;20263;-67
2023/07/09 07:56:08;;;;;;;8.50;6.30;;;28.30;90.20;;;;;;5022047;28;20187;-67
2023/07/09 07:58:34;;;;;;;7.73;7.00;;;28.40;89.50;;;;;;5020465;28;20983;-67
2023/07/09 08:01:00;;;;;;;8.40;6.57;;;28.40;89.20;;;;;;5022846;28;20432;-68
2023/07/09 08:03:26;;;;;;;10.17;9.17;;;28.40;89.00;;;;;;5026913;28;20196;-68
2023/07/09 08:05:52;;;;;;;7.93;5.43;;;28.50;88.80;;;;;;5012830;28;20219;-68
2023/07/09 08:08:18;;;;;;;8.40;5.50;;;28.50;87.90;;;;;;5016890;28;20529;-67
2023/07/09 08:10:43;;;;;;;7.27;5.90;;;28.60;86.50;;;;;;5016389;28;21204;-67
2023/07/09 08:13:09;;;;;;;6.87;5.80;;;28.70;86.80;;;;;;5013420;28;20193;-67
2023/07/09 08:15:35;;;;;;;9.27;8.30;;;28.80;86.00;;;;;;5009884;28;21501;-67
2023/07/09 08:18:01;;;;;;;9.53;8.20;;;28.80;85.70;;;;;;5013502;28;20694;-67
2023/07/09 08:20:26;;;;;;;7.93;6.60;;;28.90;85.40;;;;;;5015059;28;20204;-67
2023/07/09 08:22:52;;;;;;;7.30;6.60;;;28.90;84.70;;;;;;5016122;28;20258;-67
2023/07/09 08:25:18;;;;;;;8.20;5.53;;;29.00;83.80;;;;;;5012482;28;20180;-67
2023/07/09 08:27:43;;;;;;;8.87;5.83;;;29.10;83.50;;;;;;5015737;28;20212;-67
2023/07/09 08:30:09;;;;;;;9.30;5.20;;;29.10;83.30;;;;;;5017629;28;20219;-67
2023/07/09 08:32:35;;;;;;;7.10;5.67;;;29.20;82.70;;;;;;5033131;28;21497;-67
2023/07/09 08:35:00;;;;;;;7.33;5.87;;;29.30;82.80;;;;;;5015024;28;20526;-67
2023/07/09 08:37:26;;;;;;;6.00;5.50;;;29.30;82.50;;;;;;5020931;28;20268;-67
2023/07/09 08:39:51;;;;;;;6.37;5.63;;;29.40;82.50;;;;;;5017342;28;21027;-68
2023/07/09 08:42:31;;;;;;;7.83;7.03;;;29.40;82.40;;;;;;5025500;28;20605;-67
2023/07/09 08:45:32;;;;;;;9.87;6.93;;;29.50;82.20;;;;;;5017472;28;20184;-67
2023/07/09 08:48:04;;;;;;;7.77;6.37;;;29.60;82.40;;;;;;5016433;28;20491;-67
2023/07/09 08:50:38;;;;;;;9.30;5.80;;;29.60;82.50;;;;;;5015434;28;20456;-67
2023/07/09 08:53:10;;;;;;;6.67;6.07;;;29.70;82.20;;;;;;5018731;28;20431;-68
2023/07/09 08:55:40;;;;;;;7.37;5.40;;;29.80;81.70;;;;;;5019778;28;20853;-68
2023/07/09 08:58:23;;;;;;;8.97;5.60;;;29.90;82.10;;;;;;5017030;28;20460;-68
2023/07/09 09:01:01;;;;;;;6.57;5.40;;;30.00;81.10;;;;;;5020468;28;20438;-67
2023/07/09 09:03:54;;;;;;;11.57;7.03;;;30.00;81.00;;;;;;5015642;28;20513;-68
2023/07/09 09:06:25;;;;;;;6.70;6.03;;;30.10;80.30;;;;;;5020473;28;20446;-68
2023/07/09 09:09:18;;;;;;;7.83;6.47;;;30.20;80.00;;;;;;5023907;28;20930;-68
2023/07/09 09:11:52;;;;;;;6.87;5.60;;;30.30;79.20;;;;;;5021357;28;20528;-68
2023/07/09 09:14:24;;;;;;;7.73;5.73;;;30.40;78.70;;;;;;5018904;28;20464;-68
2023/07/09 09:16:51;;;;;;;9.40;5.10;;;30.40;78.10;;;;;;5017268;28;20817;-69
2023/07/09 09:19:28;;;;;;;9.33;8.20;;;30.50;77.60;;;;;;5020363;28;20465;-68
2023/07/09 09:22:08;;;;;;;7.10;5.67;;;30.50;76.80;;;;;;5018248;28;20931;-68
2023/07/09 09:24:55;;;;;;;6.37;5.63;;;30.60;77.20;;;;;;5023400;28;20424;-68
2023/07/09 09:27:21;;;;;;;9.50;7.20;;;30.70;76.50;;;;;;5021284;28;20447;-67
2023/07/09 09:29:47;;;;;;;8.93;5.50;;;30.70;76.50;;;;;;5021465;28;20462;-68
2023/07/09 09:32:24;;;;;;;7.13;6.43;;;30.80;76.50;;;;;;5020824;28;20216;-68
2023/07/09 09:34:50;;;;;;;9.23;5.60;;;30.90;77.10;;;;;;5021248;28;20176;-68
2023/07/09 09:37:25;;;;;;;7.17;5.70;;;30.90;77.00;;;;;;5023836;28;20937;-68
2023/07/09 09:39:51;;;;;;;7.30;5.80;;;31.00;75.80;;;;;;5021642;28;21138;-68
2023/07/09 09:42:16;;;;;;;7.47;5.47;;;31.10;75.20;;;;;;5022821;28;20454;-66
2023/07/09 09:44:46;;;;;;;8.33;5.30;;;31.20;75.00;;;;;;5021969;28;20422;-66
2023/07/09 09:47:12;;;;;;;7.00;5.73;;;31.20;75.00;;;;;;5021017;28;20626;-66
2023/07/09 09:49:43;;;;;;;8.60;6.23;;;31.30;75.30;;;;;;5022678;28;20481;-66
2023/07/09 09:52:18;;;;;;;5.60;5.10;;;31.40;75.60;;;;;;5036864;28;20489;-66
2023/07/09 09:54:56;;;;;;;8.53;5.77;;;31.50;73.80;;;;;;5023630;28;20765;-67
2023/07/09 09:57:24;;;;;;;6.13;5.30;;;31.50;73.50;;;;;;5023747;28;20418;-67
2023/07/09 09:59:53;;;;;;;8.23;7.47;;;31.60;74.00;;;;;;5019421;28;20451;-67
2023/07/09 10:02:21;;;;;;;10.33;9.30;;;31.60;73.80;;;;;;5023364;28;20441;-67
2023/07/09 10:04:47;;;;;;;8.07;5.20;;;31.70;73.50;;;;;;5020254;28;20452;-67
2023/07/09 10:07:29;;;;;;;7.57;5.97;;;31.80;73.10;;;;;;5023942;28;20431;-67
2023/07/09 10:09:55;;;;;;;9.03;7.03;;;31.90;73.40;;;;;;5023986;28;20295;-67
2023/07/09 10:12:45;;;;;;;6.00;5.50;;;31.90;73.30;;;;;;5023259;28;20447;-67
2023/07/09 10:15:25;;;;;;;7.20;5.40;;;32.00;72.50;;;;;;5019694;28;20182;-67
2023/07/09 10:18:19;;;;;;;6.20;5.57;;;32.10;72.20;;;;;;5023857;28;22034;-67
2023/07/09 10:21:03;;;;;;;6.43;5.80;;;32.20;71.80;;;;;;4997168;28;20398;-67
2023/07/09 10:23:59;;;;;;;6.33;5.50;;;32.30;71.50;;;;;;5021327;28;20386;-67
2023/07/09 10:26:46;;;;;;;10.30;9.20;;;32.30;71.60;;;;;;5023574;28;20435;-67
2023/07/09 10:29:18;;;;;;;7.03;5.87;;;32.50;71.00;;;;;;5016288;28;20499;-67
2023/07/09 10:32:08;;;;;;;9.03;5.87;;;32.50;69.40;;;;;;5024062;28;20913;-67
2023/07/09 10:34:51;;;;;;;6.27;5.67;;;32.60;68.80;;;;;;5016704;28;20414;-68
2023/07/09 10:37:49;;;;;;;7.57;6.77;;;32.70;68.50;;;;;;5019598;28;20541;-67
2023/07/09 10:40:21;;;;;;;6.60;5.90;;;32.70;67.30;;;;;;5017727;28;20431;-67
2023/07/09 10:42:54;;;;;;;6.90;5.00;;;32.80;66.40;;;;;;5020553;28;20954;-67
2023/07/09 10:45:27;;;;;;;7.00;5.43;;;32.90;65.10;;;;;;5018782;28;20420;-67
2023/07/09 10:48:00;;;;;;;5.63;5.13;;;33.00;64.60;;;;;;5020831;28;20870;-67
2023/07/09 10:50:34;;;;;;;6.57;5.40;;;33.10;64.70;;;;;;5022568;28;20414;-67
2023/07/09 10:53:11;;;;;;;11.10;9.57;;;33.10;64.40;;;;;;5021244;28;20439;-67
2023/07/09 10:56:02;;;;;;;6.40;5.80;;;33.20;63.90;;;;;;5015480;28;20760;-67
2023/07/09 10:58:28;;;;;;;5.70;5.20;;;33.30;62.70;;;;;;5018543;28;20491;-67
2023/07/09 11:00:54;;;;;;;6.00;5.10;;;33.40;63.10;;;;;;5018451;28;20402;-68
2023/07/09 11:03:29;;;;;;;5.30;4.80;;;33.50;63.10;;;;;;5022899;28;20192;-67
2023/07/09 11:05:54;;;;;;;5.30;4.80;;;33.50;62.30;;;;;;5021520;28;20273;-68
2023/07/09 11:08:36;;;;;;;6.10;5.50;;;33.60;62.00;;;;;;5016950;28;20916;-67
2023/07/09 11:11:10;;;;;;;7.97;5.30;;;33.80;61.40;;;;;;5021523;28;20199;-68
2023/07/09 11:13:57;;;;;;;9.47;6.50;;;33.80;60.20;;;;;;5017757;28;20390;-67
2023/07/09 11:16:32;;;;;;;5.80;5.20;;;34.00;59.30;;;;;;5019055;28;20467;-67
2023/07/09 11:19:03;;;;;;;5.90;4.83;;;34.00;59.00;;;;;;5023591;28;20451;-67
2023/07/09 11:21:29;;;;;;;6.73;5.63;;;34.10;58.50;;;;;;5019683;28;20467;-67
2023/07/09 11:23:56;;;;;;;6.00;5.10;;;34.20;58.10;;;;;;5024695;28;20415;-67
2023/07/09 11:26:35;;;;;;;5.57;4.97;;;34.20;57.90;;;;;;5022739;28;20199;-68
2023/07/09 11:29:06;;;;;;;5.30;4.80;;;34.40;56.90;;;;;;5019959;28;20508;-67
2023/07/09 11:31:38;;;;;;;6.57;4.67;;;34.40;56.50;;;;;;5017311;28;20468;-67
2023/07/09 11:34:10;;;;;;;5.63;4.67;;;34.50;56.30;;;;;;5020719;28;20496;-69
2023/07/09 11:36:55;;;;;;;5.70;5.10;;;34.70;55.80;;;;;;5025280;28;20879;-67
2023/07/09 11:39:31;;;;;;;5.80;4.30;;;34.80;55.40;;;;;;5018276;28;20414;-67
2023/07/09 11:41:58;;;;;;;8.23;5.63;;;34.90;55.20;;;;;;5023958;28;20514;-68
2023/07/09 11:44:32;;;;;;;6.80;4.83;;;35.10;54.80;;;;;;5018218;28;20433;-68
2023/07/09 11:47:01;;;;;;;5.80;5.30;;;35.30;54.20;;;;;;5019626;28;20710;-68
2023/07/09 11:49:39;;;;;;;8.97;5.07;;;35.40;54.00;;;;;;5021798;28;20511;-68
2023/07/09 11:52:05;;;;;;;10.77;9.73;;;35.60;53.60;;;;;;5020403;28;20406;-68
2023/07/09 11:54:36;;;;;;;7.30;5.13;;;35.80;53.30;;;;;;5023209;28;20397;-68
2023/07/09 11:57:02;;;;;;;5.80;4.97;;;36.00;52.40;;;;;;5019961;28;20670;-68
2023/07/09 11:59:28;;;;;;;5.20;4.60;;;36.20;50.90;;;;;;5019963;28;20433;-68
2023/07/09 12:01:55;;;;;;;8.40;5.33;;;36.30;50.80;;;;;;5015751;28;20438;-68
2023/07/09 12:04:27;;;;;;;6.80;4.63;;;36.60;50.50;;;;;;5020798;28;20581;-68
2023/07/09 12:06:59;;;;;;;8.73;5.10;;;36.90;48.80;;;;;;5017530;28;20421;-68
2023/07/09 12:09:32;;;;;;;5.57;4.63;;;37.30;48.30;;;;;;5020441;28;20466;-68
2023/07/09 12:11:58;;;;;;;5.20;4.23;;;38.10;47.40;;;;;;5021426;28;20965;-68
2023/07/09 12:14:24;;;;;;;6.20;4.23;;;39.00;46.50;;;;;;5019518;28;20430;-68
2023/07/09 12:16:51;;;;;;;6.90;4.87;;;39.70;44.90;;;;;;5022792;28;20180;-68
2023/07/09 12:19:19;;;;;;;5.03;4.53;;;40.30;42.90;;;;;;5017059;28;20200;-68
2023/07/09 12:21:48;;;;;;;5.13;4.63;;;40.70;41.80;;;;;;5023689;28;20521;-68
2023/07/09 12:24:24;;;;;;;4.80;4.40;;;41.00;40.20;;;;;;5020542;28;20419;-68
2023/07/09 12:26:53;;;;;;;5.90;5.40;;;40.90;38.80;;;;;;5018797;28;20407;-68
2023/07/09 12:29:19;;;;;;;5.50;5.00;;;40.80;38.70;;;;;;5016901;28;20604;-68
2023/07/09 12:31:45;;;;;;;6.40;4.53;;;40.30;37.90;;;;;;5021028;28;20497;-68
2023/07/09 12:34:14;;;;;;;5.63;4.50;;;40.20;38.40;;;;;;5022035;28;20471;-68
2023/07/09 12:36:44;;;;;;;5.90;4.30;;;40.50;39.10;;;;;;5010521;28;20254;-68
2023/07/09 12:39:12;;;;;;;4.97;4.57;;;40.70;39.40;;;;;;5021551;28;20438;-68
2023/07/09 12:41:44;;;;;;;6.47;4.80;;;40.80;39.30;;;;;;5020231;28;20419;-68
2023/07/09 12:44:19;;;;;;;5.40;4.57;;;40.80;38.90;;;;;;5020045;28;20781;-68
2023/07/09 12:46:46;;;;;;;5.80;4.77;;;40.80;39.10;;;;;;5019915;28;20726;-68
2023/07/09 12:49:38;;;;;;;4.93;4.30;;;40.80;37.60;;;;;;5021444;28;20641;-68
2023/07/09 12:52:13;;;;;;;4.90;4.50;;;40.80;36.70;;;;;;5016201;28;20430;-68
2023/07/09 12:54:38;;;;;;;5.20;4.77;;;40.60;36.90;;;;;;5022018;28;21460;-68